createdAt,value
2022-10-17T00:00:34.531Z,1.80
2022-10-17T00:03:22.377Z,2.38
2022-10-17T00:06:13.537Z,2.25
2022-10-17T00:09:01.186Z,2.50
2022-10-17T00:11:48.412Z,2.13
2022-10-17T00:14:36.327Z,2.40
2022-10-17T00:17:23.555Z,2.28
2022-10-17T00:20:11.874Z,2.15
2022-10-17T00:22:59.511Z,2.00
2022-10-17T00:25:47.516Z,4.38
2022-10-17T00:28:35.068Z,2.28
2022-10-17T00:31:23.494Z,2.05
2022-10-17T00:34:11.033Z,2.20
2022-10-17T00:36:59.038Z,1.75
2022-10-17T00:39:47.230Z,1.75
2022-10-17T00:42:35.448Z,1.92
2022-10-17T00:45:27.252Z,4.40
2022-10-17T00:48:18.874Z,4.53
2022-10-17T00:51:07.494Z,4.15
2022-10-17T00:53:55.600Z,2.17
2022-10-17T00:56:43.486Z,2.30
2022-10-17T00:59:34.005Z,2.05
2022-10-17T01:02:22.456Z,1.55
2022-10-17T01:05:10.816Z,1.95
2022-10-17T01:07:58.522Z,2.00
2022-10-17T01:10:56.462Z,2.07
2022-10-17T01:13:47.503Z,2.03
2022-10-17T01:17:08.012Z,1.87
2022-10-17T01:19:55.456Z,2.00
2022-10-17T01:22:48.493Z,2.00
2022-10-17T01:25:43.578Z,2.58
2022-10-17T01:28:34.562Z,2.20
2022-10-17T01:31:24.526Z,1.87
2022-10-17T01:34:42.004Z,1.93
2022-10-17T01:37:33.975Z,2.17
2022-10-17T01:40:25.493Z,2.10
2022-10-17T01:43:20.057Z,1.87
2022-10-17T01:46:17.419Z,2.00
2022-10-17T01:49:06.843Z,2.00
2022-10-17T01:52:03.656Z,2.37
2022-10-17T01:54:56.737Z,2.70
2022-10-17T01:57:47.415Z,2.13
2022-10-17T02:00:35.778Z,1.70
2022-10-17T02:03:24.123Z,1.87
2022-10-17T02:06:12.057Z,2.00
2022-10-17T02:08:59.515Z,1.77
2022-10-17T02:11:51.970Z,1.80
2022-10-17T02:14:49.046Z,1.93
2022-10-17T02:17:36.909Z,1.60
2022-10-17T02:20:24.735Z,1.80
2022-10-17T02:23:35.458Z,2.23
2022-10-17T02:26:28.611Z,1.67
2022-10-17T02:29:18.424Z,2.00
2022-10-17T02:32:12.906Z,1.83
2022-10-17T02:35:02.216Z,1.77
2022-10-17T02:37:50.104Z,2.00
2022-10-17T02:40:38.594Z,1.63
2022-10-17T02:43:26.572Z,1.63
2022-10-17T02:46:21.532Z,1.80
2022-10-17T02:49:26.118Z,1.60
2022-10-17T02:52:15.418Z,1.77
2022-10-17T02:55:09.104Z,1.67
2022-10-17T02:58:07.509Z,1.60
2022-10-17T03:00:55.427Z,1.70
2022-10-17T03:03:43.377Z,1.37
2022-10-17T03:06:30.789Z,1.80
2022-10-17T03:09:18.608Z,1.53
2022-10-17T03:12:06.362Z,1.50
2022-10-17T03:14:54.235Z,1.73
2022-10-17T03:17:42.120Z,1.63
2022-10-17T03:20:29.978Z,1.70
2022-10-17T03:23:17.380Z,1.63
2022-10-17T03:26:08.288Z,1.70
2022-10-17T03:28:55.846Z,1.73
2022-10-17T03:31:43.713Z,1.70
2022-10-17T03:34:31.278Z,1.57
2022-10-17T03:37:19.093Z,1.60
2022-10-17T03:40:07.188Z,2.03
2022-10-17T03:42:54.599Z,1.87
2022-10-17T03:45:42.238Z,1.77
2022-10-17T03:48:30.682Z,1.50
2022-10-17T03:51:18.520Z,2.07
2022-10-17T03:54:06.041Z,1.80
2022-10-17T03:56:53.949Z,1.50
2022-10-17T03:59:41.307Z,2.00
2022-10-17T04:02:29.247Z,2.00
2022-10-17T04:05:16.721Z,1.63
2022-10-17T04:08:04.957Z,1.50
2022-10-17T04:10:52.335Z,2.20
2022-10-17T04:13:40.032Z,1.67
2022-10-17T04:16:27.848Z,1.73
2022-10-17T04:19:15.676Z,2.00
2022-10-17T04:22:04.444Z,1.70
2022-10-17T04:24:52.069Z,1.50
2022-10-17T04:27:39.787Z,1.40
2022-10-17T04:30:27.706Z,1.97
2022-10-17T04:33:15.126Z,1.63
2022-10-17T04:36:03.885Z,2.07
2022-10-17T04:38:51.740Z,1.90
2022-10-17T04:41:39.663Z,2.10
2022-10-17T04:44:30.714Z,2.23
2022-10-17T04:47:18.611Z,2.03
2022-10-17T04:50:06.652Z,2.20
2022-10-17T04:52:54.068Z,2.17
2022-10-17T04:55:41.969Z,3.07
2022-10-17T04:58:30.386Z,2.23
2022-10-17T05:01:19.446Z,2.23
2022-10-17T05:04:07.211Z,1.80
2022-10-17T05:06:55.140Z,2.03
2022-10-17T05:09:42.984Z,2.47
2022-10-17T05:12:31.221Z,2.30
2022-10-17T05:15:18.781Z,1.90
2022-10-17T05:18:07.174Z,2.07
2022-10-17T05:20:55.934Z,2.13
2022-10-17T05:23:43.839Z,2.00
2022-10-17T05:26:31.729Z,2.30
2022-10-17T05:29:19.708Z,2.10
2022-10-17T05:32:07.177Z,2.00
2022-10-17T05:34:54.642Z,1.90
2022-10-17T05:37:42.518Z,2.33
2022-10-17T05:40:30.454Z,2.63
2022-10-17T05:43:17.898Z,2.77
2022-10-17T05:46:08.363Z,2.77
2022-10-17T05:48:56.153Z,2.70
2022-10-17T05:51:43.678Z,2.57
2022-10-17T05:54:30.998Z,2.50
2022-10-17T05:57:18.227Z,2.70
2022-10-17T06:00:06.916Z,2.77
2022-10-17T06:02:54.242Z,2.63
2022-10-17T06:05:41.669Z,3.00
2022-10-17T06:08:29.342Z,2.83
2022-10-17T06:11:16.816Z,2.67
2022-10-17T06:14:05.069Z,2.90
2022-10-17T06:16:52.942Z,3.07
2022-10-17T06:19:41.437Z,3.10
2022-10-17T06:22:29.087Z,2.73
2022-10-17T06:25:17.150Z,3.00
2022-10-17T06:28:05.283Z,3.00
2022-10-17T06:30:52.739Z,3.10
2022-10-17T06:33:40.850Z,3.20
2022-10-17T06:36:28.263Z,3.53
2022-10-17T06:39:16.220Z,3.70
2022-10-17T06:42:04.632Z,4.10
2022-10-17T06:44:52.485Z,2.83
2022-10-17T06:47:40.152Z,3.50
2022-10-17T06:50:27.786Z,4.03
2022-10-17T06:53:15.208Z,3.03
2022-10-17T06:56:04.666Z,2.75
2022-10-17T06:58:52.921Z,3.20
2022-10-17T07:01:43.194Z,3.10
2022-10-17T07:04:33.737Z,3.65
2022-10-17T07:07:21.453Z,3.75
2022-10-17T07:10:09.352Z,3.00
2022-10-17T07:23:02.182Z,2.33
2022-10-17T07:25:49.625Z,2.40
2022-10-17T07:28:38.632Z,2.45
2022-10-17T07:31:26.232Z,2.40
2022-10-17T07:34:13.460Z,2.03
2022-10-17T07:37:00.904Z,2.10
2022-10-17T07:39:48.424Z,2.40
2022-10-17T07:45:28.136Z,2.00
2022-10-17T07:48:15.560Z,1.95
2022-10-17T07:51:03.576Z,2.58
2022-10-17T07:53:50.986Z,2.05
2022-10-17T07:56:38.964Z,2.00
2022-10-17T07:59:26.347Z,1.83
2022-10-17T08:02:19.653Z,2.40
2022-10-17T08:05:07.372Z,2.38
2022-10-17T08:07:55.719Z,1.85
2022-10-17T08:10:43.118Z,2.28
2022-10-17T08:13:31.002Z,1.90
2022-10-17T08:16:18.949Z,2.10
2022-10-17T08:19:06.780Z,2.33
2022-10-17T08:21:54.493Z,1.90
2022-10-17T08:24:42.854Z,1.73
2022-10-17T08:27:30.725Z,1.75
2022-10-17T08:30:18.505Z,1.50
2022-10-17T08:33:06.675Z,1.80
2022-10-17T08:35:54.076Z,1.65
2022-10-17T08:38:43.749Z,1.95
2022-10-17T08:42:00.628Z,2.10
2022-10-17T08:44:56.913Z,1.73
2022-10-17T08:47:49.655Z,1.58
2022-10-17T08:50:37.117Z,1.63
2022-10-17T08:53:40.075Z,2.17
2022-10-17T08:56:47.557Z,1.70
2022-10-17T08:59:36.087Z,1.33
2022-10-17T09:02:42.338Z,1.73
2022-10-17T09:05:41.434Z,1.85
2022-10-17T09:08:50.609Z,1.65
2022-10-17T09:11:39.105Z,1.70
2022-10-17T09:14:45.273Z,1.83
2022-10-17T09:17:42.890Z,1.63
2022-10-17T09:20:37.195Z,2.00
2022-10-17T09:23:28.366Z,1.60
2022-10-17T09:26:16.036Z,1.60
2022-10-17T09:29:04.383Z,1.75
2022-10-17T09:32:10.563Z,1.67
2022-10-17T09:34:58.087Z,1.67
2022-10-17T09:37:46.647Z,1.92
2022-10-17T09:40:35.538Z,1.77
2022-10-17T09:43:26.050Z,1.88
2022-10-17T09:46:21.817Z,1.38
2022-10-17T09:49:18.729Z,1.77
2022-10-17T09:52:10.186Z,1.50
2022-10-17T09:55:03.774Z,1.85
2022-10-17T09:58:02.382Z,1.60
2022-10-17T10:00:49.973Z,1.70
2022-10-17T10:03:39.515Z,1.95
2022-10-17T10:06:27.156Z,1.55
2022-10-17T10:09:26.939Z,1.58
2022-10-17T10:12:19.184Z,3.88
2022-10-17T10:15:31.496Z,2.42
2022-10-17T10:18:37.351Z,2.03
2022-10-17T10:21:26.603Z,1.92
2022-10-17T10:24:15.027Z,1.80
2022-10-17T10:27:04.432Z,1.45
2022-10-17T10:29:52.318Z,1.73
2022-10-17T10:32:40.282Z,1.95
2022-10-17T10:35:35.234Z,1.65
2022-10-17T10:38:23.181Z,1.70
2022-10-17T10:41:12.039Z,1.90
2022-10-17T10:43:59.928Z,1.50
2022-10-17T10:46:47.655Z,1.63
2022-10-17T10:49:35.499Z,1.27
2022-10-17T10:52:34.132Z,1.20
2022-10-17T10:55:29.556Z,1.20
2022-10-17T10:58:23.561Z,1.40
2022-10-17T11:01:18.539Z,1.50
2022-10-17T11:04:11.519Z,1.70
2022-10-17T11:07:23.035Z,1.42
2022-10-17T11:10:13.752Z,1.38
2022-10-17T11:13:12.767Z,1.63
2022-10-17T11:16:08.452Z,1.50
2022-10-17T11:19:08.455Z,1.42
2022-10-17T11:22:14.208Z,1.70
2022-10-17T11:25:05.436Z,1.45
2022-10-17T11:27:53.292Z,1.50
2022-10-17T11:33:52.148Z,1.50
2022-10-17T11:36:43.424Z,1.27
2022-10-17T11:39:49.566Z,1.65
2022-10-17T11:42:41.287Z,1.40
2022-10-17T11:45:30.516Z,1.40
2022-10-17T11:48:21.290Z,1.60
2022-10-17T11:54:31.617Z,1.33
2022-10-17T11:57:38.411Z,1.60
2022-10-17T12:00:32.557Z,1.55
2022-10-17T12:03:38.968Z,1.30
2022-10-17T12:06:32.271Z,1.30
2022-10-17T12:09:31.210Z,1.30
2022-10-17T12:12:29.258Z,1.13
2022-10-17T12:15:26.701Z,1.50
2022-10-17T12:18:17.889Z,1.50
2022-10-17T12:21:05.337Z,1.45
2022-10-17T12:23:54.196Z,1.15
2022-10-17T12:26:41.639Z,1.02
2022-10-17T12:29:30.735Z,1.42
2022-10-17T12:32:18.616Z,1.40
2022-10-17T12:35:06.630Z,1.40
2022-10-17T12:37:58.627Z,1.20
2022-10-17T12:40:53.117Z,1.48
2022-10-17T12:43:48.386Z,1.15
2022-10-17T12:46:46.948Z,1.23
2022-10-17T12:49:38.471Z,1.40
2022-10-17T12:52:48.538Z,1.17
2022-10-17T12:55:36.430Z,1.17
2022-10-17T12:58:24.276Z,1.13
2022-10-17T13:01:25.166Z,1.30
2022-10-17T13:04:13.334Z,1.15
2022-10-17T13:07:01.552Z,1.40
2022-10-17T13:09:50.776Z,1.30
2022-10-17T13:12:41.156Z,0.93
2022-10-17T13:15:29.013Z,1.30
2022-10-17T13:18:26.949Z,1.30
2022-10-17T13:21:17.210Z,1.20
2022-10-17T13:24:20.517Z,1.55
2022-10-17T13:27:25.600Z,1.42
2022-10-17T13:30:26.722Z,1.30
2022-10-17T13:33:19.572Z,1.27
2022-10-17T13:36:15.689Z,1.10
2022-10-17T13:39:13.044Z,1.30
2022-10-17T13:42:03.019Z,1.50
2022-10-17T13:44:50.608Z,1.30
2022-10-17T13:47:40.127Z,1.20
2022-10-17T13:50:51.167Z,1.45
2022-10-17T13:53:39.970Z,1.17
2022-10-17T13:56:29.526Z,1.40
2022-10-17T13:59:23.578Z,1.60
2022-10-17T14:02:19.921Z,1.05
2022-10-17T14:05:18.165Z,1.73
2022-10-17T14:08:18.951Z,1.50
2022-10-17T14:11:39.039Z,1.55
2022-10-17T14:14:27.390Z,1.33
2022-10-17T14:17:23.369Z,1.30
2022-10-17T14:23:30.299Z,1.10
2022-10-17T14:26:21.201Z,1.25
2022-10-17T14:29:21.008Z,1.30
2022-10-17T14:32:08.931Z,1.13
2022-10-17T14:35:01.531Z,1.38
2022-10-17T14:37:54.749Z,1.33
2022-10-17T14:40:49.736Z,1.55
2022-10-17T14:43:37.138Z,1.40
2022-10-17T14:46:25.126Z,1.20
2022-10-17T14:49:39.180Z,1.50
2022-10-17T14:52:27.536Z,1.60
2022-10-17T14:55:22.819Z,1.30
2022-10-17T14:58:16.831Z,1.42
2022-10-17T15:01:04.681Z,1.23
2022-10-17T15:03:51.989Z,1.50
2022-10-17T15:06:40.565Z,1.35
2022-10-17T15:09:28.947Z,1.70
2022-10-17T15:14:52.108Z,1.25
2022-10-17T15:17:39.434Z,1.30
2022-10-17T15:20:28.034Z,1.27
2022-10-17T15:23:15.461Z,1.77
2022-10-17T15:26:02.835Z,1.70
2022-10-17T15:28:50.787Z,1.50
2022-10-17T15:31:38.596Z,1.75
2022-10-17T15:34:26.309Z,1.80
2022-10-17T15:37:18.409Z,1.80
2022-10-17T15:40:07.078Z,2.03
2022-10-17T15:42:54.618Z,2.30
2022-10-17T15:45:42.500Z,1.65
2022-10-17T15:48:31.550Z,1.80
2022-10-17T15:51:19.524Z,2.00
2022-10-17T15:54:06.929Z,2.38
2022-10-17T15:56:55.615Z,2.13
2022-10-17T15:59:43.181Z,2.63
2022-10-17T16:02:30.667Z,2.30
2022-10-17T16:05:19.628Z,2.22
2022-10-17T16:08:07.019Z,2.90
2022-10-17T16:10:54.549Z,2.63
2022-10-17T16:13:42.482Z,2.80
2022-10-17T16:16:29.997Z,2.63
2022-10-17T16:19:17.586Z,2.55
2022-10-17T16:22:06.702Z,2.75
2022-10-17T16:24:59.141Z,3.42
2022-10-17T16:27:47.281Z,2.60
2022-10-17T16:30:43.723Z,3.30
2022-10-17T16:37:24.891Z,2.42
2022-10-17T16:44:38.704Z,2.88
2022-10-17T16:58:38.500Z,4.45
2022-10-17T17:01:26.437Z,3.97
2022-10-17T17:04:13.873Z,4.15
2022-10-17T17:07:01.732Z,3.70
2022-10-17T17:09:49.073Z,4.22
2022-10-17T17:12:36.806Z,7.40
2022-10-17T17:15:24.284Z,7.82
2022-10-17T17:18:13.066Z,5.13
2022-10-17T17:21:01.164Z,3.78
2022-10-17T17:23:48.614Z,4.40
2022-10-17T17:26:36.169Z,3.88
2022-10-17T17:29:24.325Z,4.10
2022-10-17T17:32:11.861Z,4.40
2022-10-17T17:34:59.212Z,4.38
2022-10-17T17:37:46.549Z,4.70
2022-10-17T17:40:34.570Z,4.00
2022-10-17T17:43:22.332Z,4.45
2022-10-17T17:46:09.833Z,5.13
2022-10-17T17:48:57.534Z,5.28
2022-10-17T17:51:46.874Z,7.30
2022-10-17T17:54:38.505Z,6.55
2022-10-17T17:57:29.613Z,6.30
2022-10-17T18:00:17.556Z,5.90
2022-10-17T18:03:05.543Z,4.85
2022-10-17T18:05:53.443Z,5.93
2022-10-17T18:08:40.871Z,5.75
2022-10-17T18:11:28.424Z,5.32
2022-10-17T18:14:16.230Z,5.82
2022-10-17T18:17:03.686Z,5.68
2022-10-17T18:19:51.165Z,4.68
2022-10-17T18:22:38.685Z,4.88
2022-10-17T18:25:25.909Z,5.72
2022-10-17T18:28:13.754Z,6.32
2022-10-17T18:31:08.346Z,5.30
2022-10-17T18:33:56.518Z,6.00
2022-10-17T18:36:44.412Z,4.63
2022-10-17T18:39:31.606Z,4.50
2022-10-17T18:42:20.411Z,3.65
2022-10-17T18:45:08.582Z,4.30
2022-10-17T18:47:55.970Z,3.83
2022-10-17T18:50:43.422Z,4.00
2022-10-17T18:53:30.637Z,2.90
2022-10-17T18:56:19.285Z,3.50
2022-10-17T18:59:07.123Z,3.00
2022-10-17T19:01:54.577Z,3.40
2022-10-17T19:04:42.473Z,3.13
2022-10-17T19:07:30.308Z,3.60
2022-10-17T19:10:17.792Z,3.45
2022-10-17T19:13:05.691Z,3.40
2022-10-17T19:15:53.532Z,3.67
2022-10-17T19:18:40.881Z,3.88
2022-10-17T19:21:28.795Z,3.90
2022-10-17T19:24:17.864Z,3.28
2022-10-17T19:27:07.217Z,2.70
2022-10-17T19:29:54.486Z,2.90
2022-10-17T19:32:42.261Z,3.33
2022-10-17T19:35:29.448Z,3.30
2022-10-17T19:38:17.184Z,2.65
2022-10-17T19:41:08.892Z,2.70
2022-10-17T19:43:56.212Z,3.05
2022-10-17T19:46:47.136Z,2.80
2022-10-17T19:49:35.030Z,2.42
2022-10-17T19:52:22.409Z,2.85
2022-10-17T19:55:10.133Z,3.15
2022-10-17T19:57:59.151Z,3.00
2022-10-17T20:00:57.604Z,2.60
2022-10-17T20:03:45.273Z,3.28
2022-10-17T20:06:34.006Z,3.00
2022-10-17T20:09:21.866Z,3.13
2022-10-17T20:12:09.679Z,2.40
2022-10-17T20:14:56.967Z,2.60
2022-10-17T20:17:44.682Z,3.17
2022-10-17T20:20:32.680Z,2.70
2022-10-17T20:23:20.789Z,2.95
2022-10-17T20:26:33.204Z,3.38
2022-10-17T20:29:20.491Z,3.25
2022-10-17T20:32:08.363Z,3.30
2022-10-17T20:34:55.609Z,3.65
2022-10-17T20:37:43.390Z,2.90
2022-10-17T20:40:35.043Z,2.53
2022-10-17T20:43:23.160Z,2.92
2022-10-17T20:46:29.388Z,3.05
2022-10-17T20:49:23.227Z,2.95
2022-10-17T20:52:10.898Z,2.90
2022-10-17T20:54:58.699Z,3.20
2022-10-17T20:57:46.813Z,2.95
2022-10-17T21:00:35.333Z,2.80
2022-10-17T21:03:22.680Z,3.45
2022-10-17T21:06:11.225Z,2.50
2022-10-17T21:08:58.678Z,3.38
2022-10-17T21:11:46.409Z,2.65
2022-10-17T21:14:34.351Z,2.80
2022-10-17T21:17:22.023Z,2.72
2022-10-17T21:20:09.519Z,2.40
2022-10-17T21:22:57.748Z,3.00
2022-10-17T21:25:45.085Z,2.65
2022-10-17T21:28:32.917Z,2.42
2022-10-17T21:31:24.717Z,2.35
2022-10-17T21:34:17.961Z,2.58
2022-10-17T21:37:06.079Z,2.60
2022-10-17T21:39:53.471Z,2.60
2022-10-17T21:42:41.218Z,2.70
2022-10-17T21:45:28.899Z,2.63
2022-10-17T21:48:16.321Z,2.57
2022-10-17T21:51:05.380Z,2.35
2022-10-17T21:53:53.565Z,2.17
2022-10-17T21:56:42.545Z,2.45
2022-10-17T21:59:31.863Z,2.70
2022-10-17T22:02:19.703Z,2.50
2022-10-17T22:05:07.031Z,2.80
2022-10-17T22:07:54.749Z,2.27
2022-10-17T22:10:42.008Z,2.38
2022-10-17T22:13:29.643Z,2.17
2022-10-17T22:16:17.804Z,2.37
2022-10-17T22:19:06.651Z,2.30
2022-10-17T22:21:54.864Z,2.30
2022-10-17T22:24:42.261Z,2.60
2022-10-17T22:27:29.902Z,2.40
2022-10-17T22:30:18.114Z,3.00
2022-10-17T22:33:05.516Z,2.37
2022-10-17T22:35:53.213Z,2.30
2022-10-17T22:38:40.657Z,2.47
2022-10-17T22:41:27.997Z,2.28
2022-10-17T22:44:15.863Z,2.33
2022-10-17T22:47:03.231Z,1.83
2022-10-17T22:49:50.933Z,1.98
2022-10-17T22:52:38.622Z,2.25
2022-10-17T22:55:26.448Z,2.30
2022-10-17T22:58:13.820Z,2.40
2022-10-17T23:01:01.441Z,2.43
2022-10-17T23:03:48.905Z,2.27
2022-10-17T23:06:36.124Z,2.00
2022-10-17T23:09:23.892Z,2.03
2022-10-17T23:12:11.283Z,1.80
2022-10-17T23:14:59.135Z,2.33
2022-10-17T23:17:46.852Z,2.40
2022-10-17T23:20:34.512Z,1.97
2022-10-17T23:23:22.670Z,2.20
2022-10-17T23:26:12.171Z,2.92
2022-10-17T23:28:59.508Z,2.33
2022-10-17T23:31:47.274Z,2.47
2022-10-17T23:34:35.047Z,2.55
2022-10-17T23:37:22.823Z,2.07
2022-10-17T23:40:11.095Z,2.00
2022-10-17T23:42:58.369Z,2.17
2022-10-17T23:45:46.305Z,2.60
2022-10-17T23:48:34.098Z,2.25
2022-10-17T23:51:21.386Z,2.17
2022-10-17T23:54:08.810Z,2.07
2022-10-17T23:56:56.458Z,2.77
2022-10-17T23:59:43.751Z,2.67
